sensor_id;sensor_type;location;lat;lon;timestamp;pressure;altitude;pressure_sealevel;temperature;humidity
72210;BME280;60113;48.762;12.302;2022-08-05T00:01:16;96993.97;;;17.55;45.24
72210;BME280;60113;48.762;12.302;2022-08-05T00:03:43;96991.81;;;17.50;44.35
72210;BME280;60113;48.762;12.302;2022-08-05T00:06:09;96995.81;;;17.46;45.13
72210;BME280;60113;48.762;12.302;2022-08-05T00:08:36;96996.97;;;17.44;45.99
72210;BME280;60113;48.762;12.302;2022-08-05T00:11:08;96996.63;;;17.39;45.72
72210;BME280;60113;48.762;12.302;2022-08-05T00:13:35;96989.00;;;17.35;45.66
72210;BME280;60113;48.762;12.302;2022-08-05T00:16:01;96996.34;;;17.33;46.19
72210;BME280;60113;48.762;12.302;2022-08-05T00:18:26;96992.31;;;17.29;45.97
72210;BME280;60113;48.762;12.302;2022-08-05T00:20:52;96986.72;;;17.24;45.99
72210;BME280;60113;48.762;12.302;2022-08-05T00:23:18;96981.91;;;17.19;45.18
72210;BME280;60113;48.762;12.302;2022-08-05T00:25:43;96992.00;;;17.16;46.76
72210;BME280;60113;48.762;12.302;2022-08-05T00:28:09;96979.38;;;17.09;45.24
72210;BME280;60113;48.762;12.302;2022-08-05T00:30:35;96989.47;;;17.06;45.76
72210;BME280;60113;48.762;12.302;2022-08-05T00:33:00;96982.50;;;17.05;46.94
72210;BME280;60113;48.762;12.302;2022-08-05T00:35:25;96982.84;;;17.02;46.35
72210;BME280;60113;48.762;12.302;2022-08-05T00:37:51;96977.69;;;17.00;46.10
72210;BME280;60113;48.762;12.302;2022-08-05T00:40:17;96977.00;;;16.98;46.23
72210;BME280;60113;48.762;12.302;2022-08-05T00:42:43;96968.75;;;16.93;46.50
72210;BME280;60113;48.762;12.302;2022-08-05T00:45:08;96973.53;;;16.89;46.71
72210;BME280;60113;48.762;12.302;2022-08-05T00:47:35;96977.53;;;16.85;46.40
72210;BME280;60113;48.762;12.302;2022-08-05T00:50:00;96971.53;;;16.83;47.01
72210;BME280;60113;48.762;12.302;2022-08-05T00:52:26;96976.31;;;16.79;46.91
72210;BME280;60113;48.762;12.302;2022-08-05T00:54:51;96970.69;;;16.74;47.07
72210;BME280;60113;48.762;12.302;2022-08-05T00:57:17;96972.84;;;16.70;46.14
72210;BME280;60113;48.762;12.302;2022-08-05T00:59:42;96975.97;;;16.66;46.59
72210;BME280;60113;48.762;12.302;2022-08-05T01:02:08;96965.84;;;16.61;46.24
72210;BME280;60113;48.762;12.302;2022-08-05T01:04:34;96968.84;;;16.58;46.26
72210;BME280;60113;48.762;12.302;2022-08-05T01:06:59;96967.34;;;16.55;46.26
72210;BME280;60113;48.762;12.302;2022-08-05T01:09:25;96966.66;;;16.53;47.16
72210;BME280;60113;48.762;12.302;2022-08-05T01:11:52;96963.53;;;16.49;47.37
72210;BME280;60113;48.762;12.302;2022-08-05T01:14:25;96964.00;;;16.45;48.56
72210;BME280;60113;48.762;12.302;2022-08-05T01:19:52;96954.84;;;16.39;47.76
72210;BME280;60113;48.762;12.302;2022-08-05T01:22:35;96961.47;;;16.35;53.47
72210;BME280;60113;48.762;12.302;2022-08-05T01:30:37;96961.91;;;16.22;48.13
72210;BME280;60113;48.762;12.302;2022-08-05T01:33:06;96973.69;;;16.19;48.06
72210;BME280;60113;48.762;12.302;2022-08-05T01:35:33;96975.81;;;16.16;48.06
72210;BME280;60113;48.762;12.302;2022-08-05T01:38:00;96964.03;;;16.10;47.92
72210;BME280;60113;48.762;12.302;2022-08-05T01:40:28;96966.84;;;16.08;48.11
72210;BME280;60113;48.762;12.302;2022-08-05T01:42:56;96968.00;;;16.06;48.34
72210;BME280;60113;48.762;12.302;2022-08-05T01:45:22;96968.00;;;16.06;48.65
72210;BME280;60113;48.762;12.302;2022-08-05T01:47:50;96963.84;;;16.03;48.32
72210;BME280;60113;48.762;12.302;2022-08-05T01:50:38;96966.81;;;16.00;55.19
72210;BME280;60113;48.762;12.302;2022-08-05T01:53:09;96971.56;;;15.96;49.31
72210;BME280;60113;48.762;12.302;2022-08-05T01:55:36;96963.09;;;15.93;48.90
72210;BME280;60113;48.762;12.302;2022-08-05T01:58:04;96967.06;;;15.88;48.23
72210;BME280;60113;48.762;12.302;2022-08-05T02:00:33;96963.72;;;15.86;49.50
72210;BME280;60113;48.762;12.302;2022-08-05T02:03:11;96966.69;;;15.83;56.43
72210;BME280;60113;48.762;12.302;2022-08-05T02:05:41;96964.34;;;15.80;49.82
72210;BME280;60113;48.762;12.302;2022-08-05T02:08:07;96953.41;;;15.75;49.51
72210;BME280;60113;48.762;12.302;2022-08-05T02:10:41;96959.84;;;15.72;54.65
72210;BME280;60113;48.762;12.302;2022-08-05T02:13:13;96959.19;;;15.70;54.98
72210;BME280;60113;48.762;12.302;2022-08-05T02:15:49;96957.16;;;15.64;52.88
72210;BME280;60113;48.762;12.302;2022-08-05T02:18:25;96962.78;;;15.61;49.55
72210;BME280;60113;48.762;12.302;2022-08-05T02:20:56;96958.59;;;15.58;52.14
72210;BME280;60113;48.762;12.302;2022-08-05T02:23:28;96961.41;;;15.57;50.94
72210;BME280;60113;48.762;12.302;2022-08-05T02:25:56;96966.03;;;15.55;49.45
72210;BME280;60113;48.762;12.302;2022-08-05T02:28:26;96960.06;;;15.53;48.87
72210;BME280;60113;48.762;12.302;2022-08-05T02:30:56;96967.31;;;15.50;51.82
72210;BME280;60113;48.762;12.302;2022-08-05T02:33:23;96957.03;;;15.47;49.96
72210;BME280;60113;48.762;12.302;2022-08-05T02:35:52;96958.19;;;15.45;50.47
72210;BME280;60113;48.762;12.302;2022-08-05T02:38:21;96962.00;;;15.42;49.90
72210;BME280;60113;48.762;12.302;2022-08-05T02:40:48;96962.28;;;15.39;50.12
72210;BME280;60113;48.762;12.302;2022-08-05T02:43:14;96964.25;;;15.37;51.35
72210;BME280;60113;48.762;12.302;2022-08-05T02:45:42;96962.59;;;15.36;51.02
72210;BME280;60113;48.762;12.302;2022-08-05T02:48:09;96962.91;;;15.33;50.26
72210;BME280;60113;48.762;12.302;2022-08-05T02:50:35;96966.72;;;15.30;50.69
72210;BME280;60113;48.762;12.302;2022-08-05T02:53:02;96961.72;;;15.27;50.36
72210;BME280;60113;48.762;12.302;2022-08-05T02:55:29;96961.34;;;15.22;50.49
72210;BME280;60113;48.762;12.302;2022-08-05T02:57:57;96966.41;;;15.15;50.73
72210;BME280;60113;48.762;12.302;2022-08-05T03:00:23;96963.56;;;15.08;50.30
72210;BME280;60113;48.762;12.302;2022-08-05T03:02:49;96965.81;;;15.03;50.91
72210;BME280;60113;48.762;12.302;2022-08-05T03:05:16;96962.63;;;14.99;50.35
72210;BME280;60113;48.762;12.302;2022-08-05T03:07:42;96960.16;;;14.98;50.62
72210;BME280;60113;48.762;12.302;2022-08-05T03:10:08;96959.50;;;14.96;49.31
72210;BME280;60113;48.762;12.302;2022-08-05T03:12:38;96960.28;;;14.96;51.46
72210;BME280;60113;48.762;12.302;2022-08-05T03:15:06;96961.28;;;14.95;50.92
72210;BME280;60113;48.762;12.302;2022-08-05T03:17:31;96960.44;;;14.95;50.91
72210;BME280;60113;48.762;12.302;2022-08-05T03:19:57;96962.28;;;14.94;51.75
72210;BME280;60113;48.762;12.302;2022-08-05T03:22:23;96953.66;;;14.92;51.15
72210;BME280;60113;48.762;12.302;2022-08-05T03:24:50;96957.44;;;14.90;51.20
72210;BME280;60113;48.762;12.302;2022-08-05T03:27:16;96948.97;;;14.86;52.20
72210;BME280;60113;48.762;12.302;2022-08-05T03:29:42;96942.19;;;14.83;49.99
72210;BME280;60113;48.762;12.302;2022-08-05T03:32:08;96949.28;;;14.83;51.70
72210;BME280;60113;48.762;12.302;2022-08-05T03:34:34;96943.28;;;14.81;50.41
72210;BME280;60113;48.762;12.302;2022-08-05T03:37:01;96945.28;;;14.79;53.05
72210;BME280;60113;48.762;12.302;2022-08-05T03:39:27;96948.19;;;14.75;53.93
72210;BME280;60113;48.762;12.302;2022-08-05T03:41:53;96942.22;;;14.73;52.90
72210;BME280;60113;48.762;12.302;2022-08-05T03:44:19;96941.53;;;14.71;51.51
72210;BME280;60113;48.762;12.302;2022-08-05T03:46:44;96940.88;;;14.69;52.54
72210;BME280;60113;48.762;12.302;2022-08-05T03:49:10;96935.72;;;14.68;52.35
72210;BME280;60113;48.762;12.302;2022-08-05T03:51:41;96935.88;;;14.66;51.65
72210;BME280;60113;48.762;12.302;2022-08-05T03:54:20;96939.34;;;14.67;54.42
72210;BME280;60113;48.762;12.302;2022-08-05T03:56:48;96938.53;;;14.66;52.38
72210;BME280;60113;48.762;12.302;2022-08-05T03:59:36;96935.72;;;14.68;57.50
72210;BME280;60113;48.762;12.302;2022-08-05T04:02:06;96933.75;;;14.70;52.35
72210;BME280;60113;48.762;12.302;2022-08-05T04:04:32;96939.88;;;14.70;52.60
72210;BME280;60113;48.762;12.302;2022-08-05T04:06:59;96934.59;;;14.70;52.58
72210;BME280;60113;48.762;12.302;2022-08-05T04:09:27;96930.13;;;14.71;52.07
72210;BME280;60113;48.762;12.302;2022-08-05T04:11:54;96935.41;;;14.71;52.05
72210;BME280;60113;48.762;12.302;2022-08-05T04:14:20;96936.22;;;14.71;51.73
72210;BME280;60113;48.762;12.302;2022-08-05T04:16:46;96936.94;;;14.73;52.35
72210;BME280;60113;48.762;12.302;2022-08-05T04:19:12;96938.56;;;14.74;52.07
72210;BME280;60113;48.762;12.302;2022-08-05T04:21:38;96933.13;;;14.76;52.22
72210;BME280;60113;48.762;12.302;2022-08-05T04:24:04;96932.06;;;14.79;52.58
72210;BME280;60113;48.762;12.302;2022-08-05T04:26:30;96925.63;;;14.81;52.41
72210;BME280;60113;48.762;12.302;2022-08-05T04:28:56;96932.25;;;14.85;52.46
72210;BME280;60113;48.762;12.302;2022-08-05T04:31:21;96926.81;;;14.87;51.85
72210;BME280;60113;48.762;12.302;2022-08-05T04:33:47;96937.78;;;14.92;52.16
72210;BME280;60113;48.762;12.302;2022-08-05T04:36:13;96937.31;;;14.97;52.38
72210;BME280;60113;48.762;12.302;2022-08-05T04:38:41;96947.44;;;15.02;52.09
72210;BME280;60113;48.762;12.302;2022-08-05T04:41:07;96951.44;;;15.06;52.41
72210;BME280;60113;48.762;12.302;2022-08-05T04:43:32;96954.47;;;15.11;50.89
72210;BME280;60113;48.762;12.302;2022-08-05T04:45:58;96942.28;;;15.18;51.69
72210;BME280;60113;48.762;12.302;2022-08-05T04:48:23;96940.56;;;15.27;52.67
72210;BME280;60113;48.762;12.302;2022-08-05T04:50:50;96940.75;;;15.34;52.12
72210;BME280;60113;48.762;12.302;2022-08-05T04:53:17;96937.16;;;15.43;52.13
72210;BME280;60113;48.762;12.302;2022-08-05T04:55:43;96949.31;;;15.54;52.73
72210;BME280;60113;48.762;12.302;2022-08-05T04:58:11;96939.50;;;15.73;52.24
72210;BME280;60113;48.762;12.302;2022-08-05T05:00:37;96950.94;;;16.00;53.31
72210;BME280;60113;48.762;12.302;2022-08-05T05:03:05;96942.09;;;16.34;52.86
72210;BME280;60113;48.762;12.302;2022-08-05T05:05:31;96945.31;;;16.71;52.58
72210;BME280;60113;48.762;12.302;2022-08-05T05:08:06;96946.72;;;17.17;54.62
72210;BME280;60113;48.762;12.302;2022-08-05T05:10:46;96955.44;;;17.68;53.29
72210;BME280;60113;48.762;12.302;2022-08-05T05:13:14;96952.81;;;18.16;53.80
72210;BME280;60113;48.762;12.302;2022-08-05T05:15:41;96964.06;;;18.67;53.90
72210;BME280;60113;48.762;12.302;2022-08-05T05:18:07;96962.06;;;19.16;53.72
72210;BME280;60113;48.762;12.302;2022-08-05T05:20:34;96962.25;;;19.68;52.90
72210;BME280;60113;48.762;12.302;2022-08-05T05:23:01;96965.50;;;20.08;52.67
72210;BME280;60113;48.762;12.302;2022-08-05T05:25:28;96963.06;;;20.44;52.11
72210;BME280;60113;48.762;12.302;2022-08-05T05:27:54;96951.94;;;20.77;52.00
72210;BME280;60113;48.762;12.302;2022-08-05T05:30:20;96953.13;;;21.11;51.73
72210;BME280;60113;48.762;12.302;2022-08-05T05:32:47;96955.91;;;21.54;52.08
72210;BME280;60113;48.762;12.302;2022-08-05T05:35:12;96959.91;;;21.93;51.81
72210;BME280;60113;48.762;12.302;2022-08-05T05:37:53;96964.38;;;22.28;53.14
72210;BME280;60113;48.762;12.302;2022-08-05T05:40:21;96950.16;;;22.63;51.41
72210;BME280;60113;48.762;12.302;2022-08-05T05:42:47;96951.84;;;22.98;51.42
72210;BME280;60113;48.762;12.302;2022-08-05T05:45:13;96951.06;;;23.38;51.05
72210;BME280;60113;48.762;12.302;2022-08-05T05:47:39;96958.25;;;23.85;50.73
72210;BME280;60113;48.762;12.302;2022-08-05T05:50:07;96960.81;;;24.32;50.44
72210;BME280;60113;48.762;12.302;2022-08-05T05:52:32;96962.72;;;24.64;50.42
72210;BME280;60113;48.762;12.302;2022-08-05T05:54:59;96962.56;;;24.98;50.04
72210;BME280;60113;48.762;12.302;2022-08-05T05:57:25;96974.66;;;25.14;50.48
72210;BME280;60113;48.762;12.302;2022-08-05T05:59:50;96985.41;;;25.14;50.55
72210;BME280;60113;48.762;12.302;2022-08-05T06:02:16;96982.28;;;25.17;50.54
72210;BME280;60113;48.762;12.302;2022-08-05T06:04:41;96974.13;;;25.31;50.13
72210;BME280;60113;48.762;12.302;2022-08-05T06:07:07;96987.19;;;25.53;50.18
72210;BME280;60113;48.762;12.302;2022-08-05T06:09:32;96989.22;;;25.83;50.43
72210;BME280;60113;48.762;12.302;2022-08-05T06:11:57;96980.94;;;26.22;50.23
72210;BME280;60113;48.762;12.302;2022-08-05T06:14:23;96986.78;;;26.56;49.87
72210;BME280;60113;48.762;12.302;2022-08-05T06:16:48;96976.59;;;26.89;49.54
72210;BME280;60113;48.762;12.302;2022-08-05T06:19:14;96980.22;;;27.14;49.50
72210;BME280;60113;48.762;12.302;2022-08-05T06:21:39;96977.09;;;27.29;49.28
72210;BME280;60113;48.762;12.302;2022-08-05T06:24:06;96974.41;;;27.53;49.13
72210;BME280;60113;48.762;12.302;2022-08-05T06:26:31;96970.88;;;27.52;49.27
72210;BME280;60113;48.762;12.302;2022-08-05T06:28:57;96972.88;;;27.57;48.76
72210;BME280;60113;48.762;12.302;2022-08-05T06:31:22;96978.09;;;27.70;48.87
72210;BME280;60113;48.762;12.302;2022-08-05T06:33:48;96979.03;;;27.76;48.78
72210;BME280;60113;48.762;12.302;2022-08-05T06:36:14;96974.91;;;27.98;48.50
72210;BME280;60113;48.762;12.302;2022-08-05T06:38:39;96977.81;;;28.20;48.48
72210;BME280;60113;48.762;12.302;2022-08-05T06:41:05;96977.53;;;28.45;48.54
72210;BME280;60113;48.762;12.302;2022-08-05T06:43:30;96976.25;;;28.48;48.28
72210;BME280;60113;48.762;12.302;2022-08-05T06:45:56;96977.84;;;28.61;48.37
72210;BME280;60113;48.762;12.302;2022-08-05T06:48:21;96967.84;;;28.91;47.89
72210;BME280;60113;48.762;12.302;2022-08-05T06:50:47;96964.72;;;29.28;47.26
72210;BME280;60113;48.762;12.302;2022-08-05T06:53:12;96971.38;;;29.55;47.58
72210;BME280;60113;48.762;12.302;2022-08-05T06:55:40;96964.06;;;29.73;47.54
72210;BME280;60113;48.762;12.302;2022-08-05T06:58:05;96967.94;;;29.99;47.59
72210;BME280;60113;48.762;12.302;2022-08-05T07:00:31;96958.16;;;30.15;47.12
72210;BME280;60113;48.762;12.302;2022-08-05T07:02:58;96972.47;;;30.33;46.58
72210;BME280;60113;48.762;12.302;2022-08-05T07:05:24;96979.72;;;30.50;46.70
72210;BME280;60113;48.762;12.302;2022-08-05T07:07:49;96979.44;;;30.74;45.83
72210;BME280;60113;48.762;12.302;2022-08-05T07:10:15;96971.28;;;30.96;45.66
72210;BME280;60113;48.762;12.302;2022-08-05T07:12:40;96964.03;;;31.02;44.80
72210;BME280;60113;48.762;12.302;2022-08-05T07:15:24;96958.13;;;31.38;44.20
72210;BME280;60113;48.762;12.302;2022-08-05T07:18:08;96956.03;;;31.50;43.95
72210;BME280;60113;48.762;12.302;2022-08-05T07:20:33;96964.97;;;31.51;44.11
72210;BME280;60113;48.762;12.302;2022-08-05T07:22:59;96967.53;;;31.35;42.82
72210;BME280;60113;48.762;12.302;2022-08-05T07:25:24;96956.13;;;31.00;41.64
72210;BME280;60113;48.762;12.302;2022-08-05T07:27:51;96960.72;;;30.72;40.98
72210;BME280;60113;48.762;12.302;2022-08-05T07:30:17;96965.69;;;30.53;40.90
72210;BME280;60113;48.762;12.302;2022-08-05T07:32:45;96963.91;;;30.41;40.45
72210;BME280;60113;48.762;12.302;2022-08-05T07:35:11;96974.66;;;30.36;40.29
72210;BME280;60113;48.762;12.302;2022-08-05T07:37:38;96972.22;;;30.35;40.15
72210;BME280;60113;48.762;12.302;2022-08-05T07:40:04;96970.41;;;30.40;40.75
72210;BME280;60113;48.762;12.302;2022-08-05T07:42:30;96973.03;;;30.57;40.64
72210;BME280;60113;48.762;12.302;2022-08-05T07:44:56;96973.34;;;30.84;41.59
72210;BME280;60113;48.762;12.302;2022-08-05T07:47:21;96967.06;;;31.11;41.51
72210;BME280;60113;48.762;12.302;2022-08-05T07:49:47;96963.78;;;31.36;41.50
72210;BME280;60113;48.762;12.302;2022-08-05T07:52:13;96958.22;;;31.53;41.50
72210;BME280;60113;48.762;12.302;2022-08-05T07:54:38;96965.69;;;31.74;41.03
72210;BME280;60113;48.762;12.302;2022-08-05T07:57:04;96968.94;;;31.76;40.76
72210;BME280;60113;48.762;12.302;2022-08-05T07:59:30;96968.19;;;31.86;40.61
72210;BME280;60113;48.762;12.302;2022-08-05T08:01:55;96974.28;;;31.98;40.86
72210;BME280;60113;48.762;12.302;2022-08-05T08:04:21;96971.50;;;31.93;40.63
72210;BME280;60113;48.762;12.302;2022-08-05T08:06:46;96985.50;;;32.12;40.76
72210;BME280;60113;48.762;12.302;2022-08-05T08:09:12;96991.53;;;32.30;40.24
72210;BME280;60113;48.762;12.302;2022-08-05T08:11:37;97002.94;;;32.22;40.04
72210;BME280;60113;48.762;12.302;2022-08-05T08:14:03;97002.47;;;31.92;37.92
72210;BME280;60113;48.762;12.302;2022-08-05T08:16:28;97005.28;;;31.64;39.09
72210;BME280;60113;48.762;12.302;2022-08-05T08:18:54;97012.59;;;31.64;38.46
72210;BME280;60113;48.762;12.302;2022-08-05T08:21:19;97030.22;;;31.61;37.99
72210;BME280;60113;48.762;12.302;2022-08-05T08:23:45;97035.66;;;31.61;38.60
72210;BME280;60113;48.762;12.302;2022-08-05T08:26:10;97043.34;;;31.75;38.38
72210;BME280;60113;48.762;12.302;2022-08-05T08:28:36;97047.94;;;31.69;38.32
72210;BME280;60113;48.762;12.302;2022-08-05T08:31:01;97046.53;;;31.66;37.49
72210;BME280;60113;48.762;12.302;2022-08-05T08:33:27;97057.31;;;31.01;36.57
72210;BME280;60113;48.762;12.302;2022-08-05T08:35:53;97061.97;;;30.38;38.15
72210;BME280;60113;48.762;12.302;2022-08-05T08:38:19;97063.78;;;30.15;37.91
72210;BME280;60113;48.762;12.302;2022-08-05T08:40:44;97049.25;;;30.39;37.68
72210;BME280;60113;48.762;12.302;2022-08-05T08:43:13;97055.22;;;30.86;37.08
72210;BME280;60113;48.762;12.302;2022-08-05T08:45:42;97054.16;;;31.37;36.25
72210;BME280;60113;48.762;12.302;2022-08-05T08:48:10;97052.84;;;31.39;36.13
72210;BME280;60113;48.762;12.302;2022-08-05T08:50:38;97054.16;;;31.37;34.87
72210;BME280;60113;48.762;12.302;2022-08-05T08:53:06;97073.97;;;31.37;35.69
72210;BME280;60113;48.762;12.302;2022-08-05T08:55:33;97079.53;;;31.25;37.61
72210;BME280;60113;48.762;12.302;2022-08-05T08:58:02;97069.53;;;31.31;36.70
72210;BME280;60113;48.762;12.302;2022-08-05T09:00:28;97061.53;;;31.41;37.03
72210;BME280;60113;48.762;12.302;2022-08-05T09:02:55;97059.19;;;31.50;36.87
72210;BME280;60113;48.762;12.302;2022-08-05T09:05:23;97067.84;;;31.47;36.77
72210;BME280;60113;48.762;12.302;2022-08-05T09:07:52;97075.75;;;31.54;35.79
72210;BME280;60113;48.762;12.302;2022-08-05T09:10:20;97057.66;;;31.65;34.86
72210;BME280;60113;48.762;12.302;2022-08-05T09:12:46;97061.25;;;31.71;36.21
72210;BME280;60113;48.762;12.302;2022-08-05T09:15:12;97058.91;;;31.85;36.35
72210;BME280;60113;48.762;12.302;2022-08-05T09:17:39;97056.34;;;32.00;36.29
72210;BME280;60113;48.762;12.302;2022-08-05T09:20:06;97051.50;;;32.13;35.21
72210;BME280;60113;48.762;12.302;2022-08-05T09:23:04;97053.50;;;32.28;33.93
72210;BME280;60113;48.762;12.302;2022-08-05T09:25:31;97059.13;;;31.78;36.07
72210;BME280;60113;48.762;12.302;2022-08-05T09:28:12;97062.53;;;31.96;34.18
72210;BME280;60113;48.762;12.302;2022-08-05T09:30:53;97058.91;;;32.23;33.96
72210;BME280;60113;48.762;12.302;2022-08-05T09:33:20;97052.97;;;32.31;35.15
72210;BME280;60113;48.762;12.302;2022-08-05T09:36:11;97058.00;;;31.41;33.97
72210;BME280;60113;48.762;12.302;2022-08-05T09:38:37;97056.97;;;31.80;35.82
72210;BME280;60113;48.762;12.302;2022-08-05T09:41:07;97059.16;;;32.21;34.74
72210;BME280;60113;48.762;12.302;2022-08-05T09:43:37;97060.03;;;32.32;33.23
72210;BME280;60113;48.762;12.302;2022-08-05T09:46:05;97057.25;;;32.75;34.40
72210;BME280;60113;48.762;12.302;2022-08-05T09:48:36;97062.59;;;33.13;33.55
72210;BME280;60113;48.762;12.302;2022-08-05T09:51:08;97063.41;;;33.29;32.35
72210;BME280;60113;48.762;12.302;2022-08-05T09:53:51;97062.34;;;33.51;30.07
72210;BME280;60113;48.762;12.302;2022-08-05T09:56:28;97058.31;;;33.80;30.12
72210;BME280;60113;48.762;12.302;2022-08-05T09:59:02;97043.41;;;32.77;28.91
72210;BME280;60113;48.762;12.302;2022-08-05T10:01:28;97051.63;;;33.03;32.87
72210;BME280;60113;48.762;12.302;2022-08-05T10:04:02;97047.09;;;33.35;29.53
72210;BME280;60113;48.762;12.302;2022-08-05T10:06:29;97050.91;;;33.54;32.14
72210;BME280;60113;48.762;12.302;2022-08-05T10:08:56;97051.22;;;33.89;30.37
72210;BME280;60113;48.762;12.302;2022-08-05T10:11:33;97047.41;;;33.64;32.00
72210;BME280;60113;48.762;12.302;2022-08-05T10:13:58;97056.09;;;33.46;31.75
72210;BME280;60113;48.762;12.302;2022-08-05T10:16:32;97058.81;;;33.46;29.71
72210;BME280;60113;48.762;12.302;2022-08-05T10:18:59;97052.31;;;33.62;31.71
72210;BME280;60113;48.762;12.302;2022-08-05T10:21:24;97056.34;;;34.12;30.84
72210;BME280;60113;48.762;12.302;2022-08-05T10:23:51;97058.00;;;34.18;29.83
72210;BME280;60113;48.762;12.302;2022-08-05T10:26:16;97051.97;;;34.26;31.02
72210;BME280;60113;48.762;12.302;2022-08-05T10:28:43;97060.44;;;34.09;29.03
72210;BME280;60113;48.762;12.302;2022-08-05T10:31:11;97062.09;;;34.00;26.38
72210;BME280;60113;48.762;12.302;2022-08-05T10:33:37;97063.97;;;34.10;29.47
72210;BME280;60113;48.762;12.302;2022-08-05T10:36:03;97081.16;;;34.15;27.59
72210;BME280;60113;48.762;12.302;2022-08-05T10:38:30;97076.78;;;34.09;29.62
72210;BME280;60113;48.762;12.302;2022-08-05T10:41:10;97074.88;;;34.04;26.80
72210;BME280;60113;48.762;12.302;2022-08-05T10:46:14;97076.66;;;33.00;28.30
72210;BME280;60113;48.762;12.302;2022-08-05T10:48:41;97084.84;;;33.05;28.01
72210;BME280;60113;48.762;12.302;2022-08-05T10:51:09;97072.81;;;32.90;27.75
72210;BME280;60113;48.762;12.302;2022-08-05T10:54:02;97078.81;;;32.92;28.11
72210;BME280;60113;48.762;12.302;2022-08-05T10:56:43;97085.97;;;33.14;27.38
72210;BME280;60113;48.762;12.302;2022-08-05T10:59:09;97087.53;;;33.00;27.54
72210;BME280;60113;48.762;12.302;2022-08-05T11:01:42;97081.81;;;33.01;27.58
72210;BME280;60113;48.762;12.302;2022-08-05T11:04:09;97086.44;;;32.96;28.95
72210;BME280;60113;48.762;12.302;2022-08-05T11:09:46;97093.78;;;32.95;27.68
72210;BME280;60113;48.762;12.302;2022-08-05T11:15:17;97090.16;;;33.64;27.95
72210;BME280;60113;48.762;12.302;2022-08-05T11:17:51;97084.72;;;33.95;27.65
72210;BME280;60113;48.762;12.302;2022-08-05T11:20:34;97092.88;;;34.00;26.82
72210;BME280;60113;48.762;12.302;2022-08-05T11:23:40;97092.00;;;34.36;26.48
72210;BME280;60113;48.762;12.302;2022-08-05T11:33:37;97087.41;;;34.26;26.41
72210;BME280;60113;48.762;12.302;2022-08-05T11:36:08;97078.06;;;34.59;26.33
72210;BME280;60113;48.762;12.302;2022-08-05T11:41:04;97086.38;;;34.94;28.66
72210;BME280;60113;48.762;12.302;2022-08-05T11:43:30;97086.72;;;34.82;27.07
72210;BME280;60113;48.762;12.302;2022-08-05T11:45:56;97079.94;;;34.58;27.86
72210;BME280;60113;48.762;12.302;2022-08-05T11:48:21;97090.44;;;33.93;26.87
72210;BME280;60113;48.762;12.302;2022-08-05T11:50:49;97084.69;;;34.11;28.61
72210;BME280;60113;48.762;12.302;2022-08-05T11:53:15;97087.41;;;34.21;27.73
72210;BME280;60113;48.762;12.302;2022-08-05T11:55:55;97088.25;;;34.16;25.86
72210;BME280;60113;48.762;12.302;2022-08-05T11:58:30;97095.31;;;34.02;26.57
72210;BME280;60113;48.762;12.302;2022-08-05T12:01:13;97088.00;;;33.66;25.88
72210;BME280;60113;48.762;12.302;2022-08-05T12:03:46;97089.59;;;33.57;27.01
72210;BME280;60113;48.762;12.302;2022-08-05T12:06:13;97089.09;;;33.75;28.27
72210;BME280;60113;48.762;12.302;2022-08-05T12:08:41;97083.34;;;33.92;28.03
72210;BME280;60113;48.762;12.302;2022-08-05T12:11:09;97077.84;;;34.08;27.58
72210;BME280;60113;48.762;12.302;2022-08-05T12:13:36;97084.38;;;34.33;26.72
72210;BME280;60113;48.762;12.302;2022-08-05T12:16:06;97087.38;;;34.37;25.99
72210;BME280;60113;48.762;12.302;2022-08-05T12:18:33;97088.72;;;34.39;28.02
72210;BME280;60113;48.762;12.302;2022-08-05T12:21:10;97089.63;;;34.14;26.21
72210;BME280;60113;48.762;12.302;2022-08-05T12:23:35;97082.75;;;34.11;26.37
72210;BME280;60113;48.762;12.302;2022-08-05T12:26:01;97087.44;;;33.85;27.91
72210;BME280;60113;48.762;12.302;2022-08-05T12:30:57;97087.13;;;34.33;25.05
72210;BME280;60113;48.762;12.302;2022-08-05T12:33:23;97076.22;;;34.33;25.93
72210;BME280;60113;48.762;12.302;2022-08-05T12:35:49;97071.03;;;34.37;26.94
72210;BME280;60113;48.762;12.302;2022-08-05T12:38:15;97061.69;;;34.53;27.87
72210;BME280;60113;48.762;12.302;2022-08-05T12:40:40;97066.22;;;34.89;24.81
72210;BME280;60113;48.762;12.302;2022-08-05T12:43:06;97065.25;;;35.20;28.19
72210;BME280;60113;48.762;12.302;2022-08-05T12:45:31;97064.13;;;35.26;23.83
72210;BME280;60113;48.762;12.302;2022-08-05T12:47:57;97068.91;;;35.45;27.69
72210;BME280;60113;48.762;12.302;2022-08-05T12:50:22;97061.06;;;35.73;27.20
72210;BME280;60113;48.762;12.302;2022-08-05T12:52:55;97058.38;;;35.98;23.64
72210;BME280;60113;48.762;12.302;2022-08-05T12:55:28;97063.63;;;35.54;23.75
72210;BME280;60113;48.762;12.302;2022-08-05T12:57:56;97057.81;;;35.31;27.67
72210;BME280;60113;48.762;12.302;2022-08-05T13:00:23;97058.44;;;35.58;26.88
72210;BME280;60113;48.762;12.302;2022-08-05T13:02:49;97049.63;;;35.66;26.33
72210;BME280;60113;48.762;12.302;2022-08-05T13:05:16;97047.13;;;35.70;25.31
72210;BME280;60113;48.762;12.302;2022-08-05T13:07:42;97054.09;;;35.51;26.67
72210;BME280;60113;48.762;12.302;2022-08-05T13:10:10;97043.28;;;35.41;26.18
72210;BME280;60113;48.762;12.302;2022-08-05T13:12:41;97044.22;;;35.21;24.42
72210;BME280;60113;48.762;12.302;2022-08-05T13:15:09;97036.38;;;35.09;25.84
72210;BME280;60113;48.762;12.302;2022-08-05T13:17:35;97033.91;;;35.07;26.48
72210;BME280;60113;48.762;12.302;2022-08-05T13:20:17;97034.63;;;35.28;24.87
72210;BME280;60113;48.762;12.302;2022-08-05T13:22:50;97022.47;;;35.45;24.25
72210;BME280;60113;48.762;12.302;2022-08-05T13:25:17;97021.69;;;35.74;26.41